Flugplatz Dankern

DE-0195 · Bassa Sassonia, Germania

Storia di METAR DE-0195 · Flugplatz Dankern

Di seguito sono riportati i METAR degli ultimi giorni. Seleziona un anno per sfogliare i METAR più vecchi, dall'anno 2007 in poi.

9 dicembre 2022

Tempo Codice Tempo metereologico Temp. Vista Base nuvolosa Vento METAR/SPECI
03:20
U
2 °C 0 m - Var Var 2 kt METAR ETWM 090220Z AUTO VRB02KT //// // ////// 02/M01 Q1006 ///
03:20
U
2 °C 0 m - Var Var 2 kt METAR ETWM 090220Z AUTO VRB02KT //// // ////// 02/M01 Q1006 ///
02:20
U
2 °C 0 m - Var Var 1 kt METAR ETWM 090120Z AUTO VRB01KT //// // ////// 02/M00 Q1007 ///
01:20
U
1 °C 0 m - 190° 190° 2 kt METAR ETWM 090020Z AUTO 19002KT //// // ////// 01/00 Q1007 ///
00:20
U
1 °C 0 m - Var Var 2 kt METAR ETWM 082320Z AUTO VRB02KT //// // ////// 01/00 Q1007 ///

8 dicembre 2022

Tempo Codice Tempo metereologico Temp. Vista Base nuvolosa Vento METAR/SPECI
23:20
U
1 °C 0 m - Var Var 1 kt METAR ETWM 082220Z AUTO VRB01KT //// // ////// 01/00 Q1007 ///
22:20
U
2 °C 0 m - Var Var 1 kt METAR ETWM 082120Z AUTO VRB01KT //// // ////// 02/00 Q1006 ///
21:20
U
3 °C 0 m - Var Var 2 kt METAR ETWM 082020Z AUTO VRB02KT //// // ////// 03/M01 Q1006 ///
20:20
U
3 °C 0 m - Var Var 2 kt METAR ETWM 081920Z AUTO VRB02KT //// // ////// 03/00 Q1006 ///
19:20
U
3 °C 0 m - Var Var 1 kt METAR ETWM 081820Z AUTO VRB01KT //// // ////// 03/00 Q1006 ///
18:20
U
2 °C 0 m - Var Var 2 kt METAR ETWM 081720Z AUTO VRB02KT //// // ////// 02/01 Q1006 ///
17:20
U
2 °C 0 m - 230° 230° 3 kt METAR ETWM 081620Z AUTO 23003KT //// // ////// 02/01 Q1006 ///
16:20
V
2 °C 10 km+ - 230° 230° 2 kt METAR ETWM 081520Z 23002KT 9999 FEW008 SCT015 02/01 Q1006 BLU+
15:20
I
3 °C 10 km+ 800 ft 250° 250° 3 kt METAR ETWM 081420Z 25003KT 9999 BKN008 03/02 Q1006 GRN
14:48
V
3 °C 10 km+ - Var Var 3 kt METAR ETWM 081348Z VRB03KT 9999 SCT008 03/02 Q1005 BLU+
14:20
I
3 °C 10 km+ 700 ft 260° 260° 4 kt METAR ETWM 081320Z 26004KT 9999 BKN007 03/02 Q1006 GRN
13:20
I
3 °C 10 km+ 700 ft Var Var 1 kt METAR ETWM 081220Z VRB01KT 9999 FEW006 BKN007 03/02 Q1006 GRN
12:20
V
3 °C 10 km+ - 260° 260° 4 kt METAR ETWM 081120Z 26004KT 9999 FEW005 FEW010TCU 03/02 Q1006 BLU+
11:20
V
3 °C 10 km+ 11.000 ft 240° 240° 4 kt METAR ETWM 081020Z 24004KT 9999 FEW005 BKN110 03/02 Q1006 BLU
10:20
V
3 °C 10 km+ 11.000 ft 240° 240° 5 kt METAR ETWM 080920Z 24005KT 9999 SCT003 BKN110 03/02 Q1006 BLU
09:20
V
2 °C 10 km+ 10.000 ft 250° 250° 5 kt METAR ETWM 080820Z 25005KT 9999 FEW004 SCT029 BKN100 02/02 Q1006 BLU
08:49
V
2 °C 10 km+ 4.000 ft 250° 250° 4 kt SPECI ETWM 080749Z 25004KT 9999 -RA FEW004 BKN040 BKN100 02/02 Q1006 BLU
08:20
I
3 °C 9 km 800 ft 260° 260° 3 kt METAR ETWM 080720Z 26003KT 9000 -RADZ FEW004 BKN008 BKN017 03/02 Q1006 GRN
07:49
I
3 °C 10 km+ 700 ft 280° 280° 4 kt METAR ETWM 080649Z 28004KT 9999 -RADZ FEW005 BKN007 03/02 Q1006 GRN
07:20
I
3 °C 6 km 500 ft 260° 260° 5 kt METAR ETWM 080620Z 26005KT 6000 -RADZ FEW004 BKN005 03/02 Q1006 YLO
06:20
I
2 °C 10 km+ 800 ft 250° 250° 5 kt METAR ETWM 080520Z 25005KT 9999 SCT004 BKN008 02/02 Q1006 GRN
05:20
U
2 °C 0 m - 250° 250° 6 kt METAR ETWM 080420Z AUTO 25006KT //// // ////// 02/02 Q1006 ///
04:20
U
2 °C 0 m - 250° 250° 6 kt METAR ETWM 080320Z AUTO 25006KT //// // ////// 02/01 Q1006 ///
03:20
U
2 °C 0 m - 230° 230° 6 kt METAR ETWM 080220Z AUTO 23006KT //// // ////// 02/01 Q1007 ///
02:20
U
2 °C 0 m - 240° 240° 5 kt METAR ETWM 080120Z AUTO 24005KT //// // ////// 02/01 Q1007 ///
01:20
U
2 °C 0 m - 230° 230° 6 kt METAR ETWM 080020Z AUTO 23006KT //// // ////// 02/01 Q1008 ///
00:20
U
2 °C 0 m - 240° 240° 4 kt METAR ETWM 072320Z AUTO 24004KT //// // ////// 02/02 Q1008 ///

7 dicembre 2022

Tempo Codice Tempo metereologico Temp. Vista Base nuvolosa Vento METAR/SPECI
23:20
U
2 °C 0 m - 230° 230° 4 kt METAR ETWM 072220Z AUTO 23004KT //// // ////// 02/02 Q1009 ///
22:20
U
3 °C 0 m - 250° 250° 4 kt METAR ETWM 072120Z AUTO 25004KT //// // ////// 03/01 Q1009 ///
21:20
U
3 °C 0 m - 240° 240° 6 kt METAR ETWM 072020Z AUTO 24006KT //// // ////// 03/02 Q1010 ///
20:20
U
3 °C 0 m - 250° 250° 5 kt METAR ETWM 071920Z AUTO 25005KT //// // ////// 03/02 Q1011 ///
19:20
U
3 °C 0 m - 260° 260° 3 kt METAR ETWM 071820Z AUTO 26003KT //// // ////// 03/02 Q1011 ///
18:20
U
3 °C 0 m - 260° 260° 3 kt METAR ETWM 071720Z AUTO 26003KT //// // ////// 03/02 Q1011 ///
17:20
U
3 °C 0 m - 250° 250° 4 kt METAR ETWM 071620Z AUTO 25004KT //// // ////// 03/02 Q1012 ///
16:20
V
4 °C 10 km+ 7.500 ft 260° 260° 5 kt METAR ETWM 071520Z 26005KT 9999 VCSH FEW018TCU SCT058 BKN075 04/02 Q1012 BLU
15:20
V
5 °C 10 km+ 7.200 ft 260° 260° 4 kt METAR ETWM 071420Z 26004KT 9999 FEW012 FEW018TCU BKN072 05/02 Q1012 BLU
14:20
V
4 °C 10 km+ - 270° 270° 4 kt METAR ETWM 071320Z 27004KT 9999 VCSH FEW012 FEW017TCU SCT110 04/02 Q1013 BLU+
13:20
V
5 °C 10 km+ 19.000 ft 280° 280° 5 kt METAR ETWM 071220Z 28005KT 9999 FEW012 SCT110 BKN190 05/02 Q1013 BLU
12:20
V
5 °C 10 km+ - 280° 280° 5 kt METAR ETWM 071120Z 28005KT 9999 VCSH FEW012 FEW018TCU SCT073 05/02 Q1014 BLU+
11:20
V
4 °C 10 km+ - 280° 280° 4 kt METAR ETWM 071020Z 28004KT 9999 VCSH FEW018TCU SCT063 04/02 Q1014 BLU+
10:20
V
3 °C 10 km+ - 260° 260° 4 kt METAR ETWM 070920Z 26004KT 9999 FEW018 SCT055 03/02 Q1014 BLU+
09:20
V
1 °C 10 km+ - 250° 250° 4 kt METAR ETWM 070820Z 25004KT 9999 FEW018 01/01 Q1014 BLU+
08:20
V
1 °C 10 km+ - 250° 250° 4 kt METAR ETWM 070720Z 25004KT 9999 FEW018 SCT031 01/01 Q1014 BLU+
07:20
V
2 °C 10 km+ - 250° 250° 4 kt METAR ETWM 070620Z 25004KT 9999 FEW018 SCT050 02/02 Q1014 BLU+
06:20
V
2 °C 10 km+ - Var Var 3 kt METAR ETWM 070520Z VRB03KT 9999 FEW020 SCT190 02/02 Q1014 BLU+
05:20
U
2 °C 0 m - 260° 260° 3 kt METAR ETWM 070420Z AUTO 26003KT //// // ////// 02/02 Q1014 ///
04:20
U
2 °C 0 m - Var Var 3 kt METAR ETWM 070320Z AUTO VRB03KT //// // ////// 02/02 Q1014 ///
03:20
U
3 °C 0 m - 310° 310° 3 kt METAR ETWM 070220Z AUTO 31003KT //// // ////// 03/02 Q1014 ///
02:20
U
3 °C 0 m - 270° 270° 3 kt METAR ETWM 070120Z AUTO 27003KT //// // ////// 03/02 Q1014 ///
01:20
U
3 °C 0 m - 260° 260° 4 kt METAR ETWM 070020Z AUTO 26004KT //// // ////// 03/03 Q1015 ///
00:20
U
4 °C 0 m - Var Var 3 kt METAR ETWM 062320Z AUTO VRB03KT //// // ////// 04/04 Q1015 ///

6 dicembre 2022

Tempo Codice Tempo metereologico Temp. Vista Base nuvolosa Vento METAR/SPECI
23:20
U
5 °C 0 m - 280° 280° 4 kt METAR ETWM 062220Z AUTO 28004KT //// // ////// 05/04 Q1015 ///
22:20
U
5 °C 0 m - 280° 280° 3 kt METAR ETWM 062120Z AUTO 28003KT //// // ////// 05/05 Q1015 ///
21:20
U
5 °C 0 m - Var Var 3 kt METAR ETWM 062020Z AUTO VRB03KT //// // ////// 05/05 Q1015 ///
20:20
U
5 °C 0 m - 240° 240° 3 kt METAR ETWM 061920Z AUTO 24003KT //// // ////// 05/04 Q1015 ///
19:20
U
5 °C 0 m - 240° 240° 3 kt METAR ETWM 061820Z AUTO 24003KT //// // ////// 05/04 Q1016 ///
18:20
U
4 °C 0 m - Var Var 3 kt METAR ETWM 061720Z AUTO VRB03KT //// // ////// 04/03 Q1016 ///
17:20
U
4 °C 0 m - Var Var 2 kt METAR ETWM 061620Z AUTO VRB02KT //// // ////// 04/03 Q1016 ///
16:20
V
5 °C 10 km+ 5.600 ft Var Var 2 kt METAR ETWM 061520Z VRB02KT 9999 FEW012 BKN056 05/03 Q1017 BLU
15:20
V
5 °C 10 km+ - 260° 260° 3 kt METAR ETWM 061420Z 26003KT 9999 FEW012 SCT027 05/03 Q1017 BLU+
14:20
V
6 °C 10 km+ - 270° 270° 4 kt METAR ETWM 061320Z 27004KT 9999 FEW012 06/03 Q1017 BLU+
13:20
V
6 °C 10 km+ 3.300 ft 280° 280° 3 kt METAR ETWM 061220Z 28003KT 9999 FEW012 BKN033 06/03 Q1017 BLU
12:20
V
5 °C 10 km+ - Var Var 3 kt METAR ETWM 061120Z VRB03KT 9999 FEW009 05/03 Q1018 BLU+
11:20
V
4 °C 10 km+ - Var Var 3 kt METAR ETWM 061020Z VRB03KT 9999 SCT002 SCT055 04/04 Q1018 BLU+

Noi e le terze parti seguiamo il tuo comportamento su internet con i cookie. Se continui, riteniamo che tu sia d'accordo con la nostra Politica sui cookie.